Weather at Oban Airport

Public forecast

Using degrees Celsius for public forecast. Weather courtesy of forecast.io.

Current aviation weather report (METAR) for Oban Airport

Report is more than 6 hours old.

2024/05/25 15:50 (retrieved 9 hours ago)

EGEO 251550Z 15012KT 9999 SCT042 17/07 Q1015

Closest aviation forecast (TAF) to Oban Airport

Forecast is more than 6 hours old.

Closest forecast is RAF Waddington, 260.0 nm (481.5 km) SE.

2024/05/25 18:18 (retrieved 6 hours ago)

TAF TAF EGXW 251912Z 2518/2612 CNL